Time;durP1;ratioP1;P1;durP2;ratioP2;P2;SDS_P1;SDS_P2;PMS_P1;PMS_P2;Temp;Humidity;BMP_temperature;BMP_pressure;BME280_temperature;BME280_humidity;BME280_pressure;Samples;Min_cycle;Max_cycle;Signal;HPM_P1;HPM_P2
2023/04/15 00:00:05;;;;;;;8.18;4.75;;;;;;;9.68;50.44;94218.53;5025682;28;20349;-75
2023/04/15 00:02:31;;;;;;;8.40;4.75;;;;;;;9.88;49.72;94223.69;5025690;28;20041;-75
2023/04/15 00:04:56;;;;;;;9.68;4.65;;;;;;;9.95;49.39;94220.69;5025931;28;20022;-74
2023/04/15 00:07:22;;;;;;;5.65;3.65;;;;;;;10.02;49.11;94215.66;5024001;28;20037;-75
2023/04/15 00:09:47;;;;;;;7.72;4.05;;;;;;;10.07;49.01;94223.31;5024389;28;20040;-75
2023/04/15 00:12:12;;;;;;;6.85;3.88;;;;;;;9.98;48.65;94219.78;5025825;28;20037;-75
2023/04/15 00:14:38;;;;;;;6.30;3.22;;;;;;;10.05;48.46;94217.53;5025434;28;20029;-75
2023/04/15 00:17:04;;;;;;;5.85;3.70;;;;;;;10.05;48.56;94220.28;5025451;28;20124;-74
2023/04/15 00:19:30;;;;;;;8.25;4.10;;;;;;;10.03;48.81;94208.97;5024177;28;20447;-75
2023/04/15 00:21:56;;;;;;;9.57;4.15;;;;;;;10.05;49.61;94206.56;5024282;28;20028;-75
2023/04/15 00:24:22;;;;;;;6.93;4.38;;;;;;;10.07;49.21;94201.34;5025107;28;20029;-75
2023/04/15 00:26:47;;;;;;;6.38;3.97;;;;;;;10.20;49.69;94211.47;5026022;28;20116;-74
2023/04/15 00:29:14;;;;;;;6.82;4.28;;;;;;;10.24;49.72;94218.41;5025308;28;20100;-74
2023/04/15 00:31:39;;;;;;;8.60;4.55;;;;;;;10.28;50.03;94223.75;5023832;28;20067;-74
2023/04/15 00:34:05;;;;;;;7.53;4.47;;;;;;;10.30;50.19;94227.56;5024123;28;20025;-74
2023/04/15 00:36:30;;;;;;;10.98;5.15;;;;;;;10.30;50.12;94232.31;5023393;28;20116;-76
2023/04/15 00:38:56;;;;;;;9.57;5.10;;;;;;;10.20;50.13;94241.69;5023971;28;20037;-74
2023/04/15 00:41:21;;;;;;;8.43;4.88;;;;;;;10.17;50.12;94231.63;5024771;28;20136;-74
2023/04/15 00:43:47;;;;;;;7.18;4.75;;;;;;;10.22;50.50;94217.31;5023819;28;20146;-74
2023/04/15 00:46:14;;;;;;;9.90;5.03;;;;;;;10.04;50.41;94223.47;5027503;28;20030;-75
2023/04/15 00:48:41;;;;;;;7.25;4.22;;;;;;;10.02;50.25;94212.94;5025466;28;20041;-74
2023/04/15 00:51:07;;;;;;;7.20;3.97;;;;;;;10.08;50.12;94211.13;5023780;28;20056;-75
2023/04/15 00:53:32;;;;;;;7.80;4.20;;;;;;;10.13;50.50;94196.03;5023353;28;20032;-74
2023/04/15 00:55:58;;;;;;;10.27;4.88;;;;;;;10.15;50.70;94217.56;5025092;28;20033;-74
2023/04/15 00:58:23;;;;;;;7.90;4.30;;;;;;;10.16;51.53;94228.13;5022906;28;20049;-74
2023/04/15 01:00:53;;;;;;;7.88;4.45;;;;;;;10.18;51.03;94227.66;5023494;28;20021;-74
2023/04/15 01:03:19;;;;;;;7.88;4.50;;;;;;;10.19;51.14;94229.19;5023025;28;20049;-75
2023/04/15 01:05:45;;;;;;;8.73;4.50;;;;;;;10.20;51.24;94227.97;5007463;28;20040;-75
2023/04/15 01:08:11;;;;;;;6.78;4.13;;;;;;;10.06;51.19;94221.81;5024315;28;20040;-75
2023/04/15 01:10:36;;;;;;;8.45;4.47;;;;;;;9.89;51.93;94219.72;5023349;28;20029;-75
2023/04/15 01:13:02;;;;;;;9.73;5.90;;;;;;;9.77;52.91;94224.84;5023743;28;20026;-75
2023/04/15 01:15:27;;;;;;;7.70;5.28;;;;;;;9.68;53.14;94238.50;5022788;28;20049;-75
2023/04/15 01:17:53;;;;;;;10.00;6.10;;;;;;;9.73;52.54;94226.19;5023498;28;20045;-75
2023/04/15 01:20:19;;;;;;;8.65;5.38;;;;;;;9.74;52.35;94230.47;5022939;28;20049;-75
2023/04/15 01:22:44;;;;;;;10.02;5.60;;;;;;;9.76;52.90;94225.31;5024711;28;20047;-75
2023/04/15 01:25:11;;;;;;;10.55;5.35;;;;;;;9.76;52.67;94231.56;5023370;28;20068;-76
2023/04/15 01:27:39;;;;;;;10.15;5.75;;;;;;;9.72;52.72;94224.66;5023364;28;20036;-75
2023/04/15 01:30:06;;;;;;;10.80;6.07;;;;;;;9.73;52.85;94226.97;5023527;28;20032;-76
2023/04/15 01:32:32;;;;;;;10.05;5.88;;;;;;;9.79;52.82;94216.16;5007566;28;20033;-74
2023/04/15 01:34:57;;;;;;;9.48;5.80;;;;;;;9.85;53.37;94233.59;5028869;28;20110;-75
2023/04/15 01:37:23;;;;;;;8.48;5.72;;;;;;;9.79;53.54;94232.63;5026543;28;20021;-74
2023/04/15 01:39:48;;;;;;;10.20;5.60;;;;;;;9.80;53.58;94220.44;5028764;28;20036;-74
2023/04/15 01:42:14;;;;;;;12.13;6.00;;;;;;;9.85;53.49;94233.59;5030481;28;20097;-75
2023/04/15 01:44:40;;;;;;;10.70;6.75;;;;;;;9.85;53.66;94237.09;5028616;28;20450;-74
2023/04/15 01:47:05;;;;;;;12.15;7.57;;;;;;;9.89;53.80;94238.94;5027177;28;20495;-75
2023/04/15 01:49:31;;;;;;;12.80;7.72;;;;;;;9.88;53.50;94237.44;5026897;28;20025;-75
2023/04/15 01:51:57;;;;;;;10.73;6.65;;;;;;;9.85;53.44;94228.84;5027432;28;20128;-75
2023/04/15 01:54:22;;;;;;;12.57;7.05;;;;;;;9.79;53.97;94227.16;5026345;28;20480;-74
2023/04/15 01:56:48;;;;;;;11.15;7.07;;;;;;;9.81;54.12;94231.00;5027019;28;20022;-75
2023/04/15 01:59:13;;;;;;;13.27;7.60;;;;;;;9.80;54.26;94228.66;5010030;28;20049;-74
2023/04/15 02:01:39;;;;;;;10.45;6.50;;;;;;;9.78;54.15;94233.84;5028518;28;20033;-75
2023/04/15 02:04:06;;;;;;;10.93;6.18;;;;;;;9.73;53.86;94237.19;5026716;28;20044;-76
2023/04/15 02:06:31;;;;;;;12.63;7.30;;;;;;;9.72;54.30;94239.16;5026452;28;20040;-75
2023/04/15 02:08:57;;;;;;;9.55;6.43;;;;;;;9.64;54.38;94243.38;5026787;28;20029;-75
2023/04/15 02:11:23;;;;;;;11.80;6.60;;;;;;;9.62;55.01;94251.28;5027699;28;20071;-75
2023/04/15 02:13:49;;;;;;;11.27;6.60;;;;;;;9.62;54.95;94253.25;5010310;28;20037;-75
2023/04/15 02:16:17;;;;;;;12.70;6.57;;;;;;;9.59;55.16;94243.97;5026551;28;20033;-76
2023/04/15 02:18:46;;;;;;;11.70;7.40;;;;;;;9.60;55.30;94247.47;5027917;28;20457;-76
2023/04/15 02:21:12;;;;;;;10.65;6.78;;;;;;;9.58;55.41;94247.91;5026413;28;20558;-76
2023/04/15 02:23:37;;;;;;;10.27;6.63;;;;;;;9.56;55.39;94244.84;5009988;28;20445;-74
2023/04/15 02:26:03;;;;;;;8.88;6.35;;;;;;;9.53;55.46;94241.03;5027691;28;20493;-74
2023/04/15 02:28:28;;;;;;;11.20;7.30;;;;;;;9.44;55.21;94226.47;5025946;28;20074;-74
2023/04/15 02:30:56;;;;;;;11.32;6.78;;;;;;;9.47;55.20;94239.31;5027999;28;20037;-75
2023/04/15 02:33:22;;;;;;;10.98;7.25;;;;;;;9.45;55.74;94247.19;5027457;28;20025;-75
2023/04/15 02:35:47;;;;;;;12.52;6.53;;;;;;;9.45;55.84;94247.19;5027617;28;20095;-75
2023/04/15 02:38:13;;;;;;;10.18;6.82;;;;;;;9.40;55.81;94253.25;5026413;28;20112;-75
2023/04/15 02:40:39;;;;;;;10.98;7.10;;;;;;;9.35;55.32;94245.59;5027536;28;20111;-75
2023/04/15 02:43:05;;;;;;;10.80;7.10;;;;;;;9.31;54.93;94253.94;5027238;28;20455;-74
2023/04/15 02:45:32;;;;;;;10.88;6.55;;;;;;;9.22;54.75;94251.13;5024931;28;20028;-75
2023/04/15 02:47:57;;;;;;;8.30;5.72;;;;;;;9.18;54.20;94254.00;5027774;28;20507;-75
2023/04/15 02:50:24;;;;;;;11.00;6.15;;;;;;;9.15;53.70;94248.63;5027097;28;20029;-75
2023/04/15 02:52:49;;;;;;;7.13;5.07;;;;;;;9.12;53.32;94241.28;5009431;28;20032;-75
2023/04/15 02:55:16;;;;;;;9.25;5.53;;;;;;;9.07;53.38;94244.63;5027432;28;20386;-75
2023/04/15 02:57:42;;;;;;;8.70;5.50;;;;;;;9.04;53.29;94251.72;5026843;28;20511;-74
2023/04/15 03:00:10;;;;;;;11.00;6.10;;;;;;;8.98;53.44;94256.25;5026587;28;20076;-75
2023/04/15 03:02:37;;;;;;;8.55;5.40;;;;;;;8.91;53.80;94251.78;5027770;28;20056;-75
2023/04/15 03:05:03;;;;;;;12.82;6.13;;;;;;;8.75;53.88;94255.41;5026082;28;20056;-75
2023/04/15 03:07:28;;;;;;;9.75;5.47;;;;;;;8.71;54.11;94259.47;5025405;28;20496;-74
2023/04/15 03:09:54;;;;;;;9.32;5.63;;;;;;;8.62;54.24;94256.66;5025685;28;20027;-75
2023/04/15 03:12:19;;;;;;;7.68;5.18;;;;;;;8.57;54.48;94251.72;5026773;28;20454;-76
2023/04/15 03:14:45;;;;;;;10.68;5.50;;;;;;;8.50;54.73;94255.47;5026715;28;20029;-76
2023/04/15 03:17:10;;;;;;;7.63;5.43;;;;;;;8.41;54.81;94260.81;5026759;28;20033;-75
2023/04/15 03:19:36;;;;;;;7.70;5.50;;;;;;;8.35;54.83;94262.56;5026948;28;20026;-75
2023/04/15 03:22:01;;;;;;;9.20;5.95;;;;;;;8.13;55.52;94257.72;5026305;28;20044;-76
2023/04/15 03:24:28;;;;;;;9.82;6.28;;;;;;;7.99;56.16;94264.41;5027164;28;20021;-75
2023/04/15 03:26:54;;;;;;;9.32;6.35;;;;;;;7.99;56.50;94275.34;5026633;28;20029;-75
2023/04/15 03:29:19;;;;;;;9.05;6.25;;;;;;;7.89;56.32;94270.94;5026375;28;20067;-75
2023/04/15 03:31:45;;;;;;;8.60;5.47;;;;;;;7.91;56.81;94281.44;5010998;28;20037;-76
2023/04/15 03:34:10;;;;;;;9.27;5.80;;;;;;;7.88;56.54;94285.06;5026462;28;20449;-76
2023/04/15 03:36:35;;;;;;;10.95;6.07;;;;;;;7.82;56.70;94282.09;5025048;28;20444;-75
2023/04/15 03:39:01;;;;;;;12.35;6.07;;;;;;;7.87;56.75;94289.03;5024517;28;20510;-75
2023/04/15 03:41:27;;;;;;;9.32;6.68;;;;;;;7.86;56.84;94309.38;5026616;28;20030;-75
2023/04/15 03:43:53;;;;;;;11.40;6.90;;;;;;;7.83;56.67;94312.97;5024703;28;20034;-75
2023/04/15 03:46:18;;;;;;;10.45;6.30;;;;;;;7.80;56.65;94319.28;5024841;28;20181;-74
2023/04/15 03:48:44;;;;;;;11.40;6.20;;;;;;;7.77;56.47;94311.97;5026336;28;20060;-74
2023/04/15 03:51:09;;;;;;;9.45;5.47;;;;;;;7.73;56.40;94318.28;5024477;28;20045;-75
2023/04/15 03:53:35;;;;;;;9.23;5.38;;;;;;;7.73;56.23;94307.34;5024752;28;20079;-74
2023/04/15 03:56:01;;;;;;;9.73;6.07;;;;;;;7.70;56.15;94308.22;5024282;28;20025;-75
2023/04/15 03:58:26;;;;;;;10.00;5.75;;;;;;;7.70;56.21;94313.69;5008283;28;20042;-74
2023/04/15 04:00:52;;;;;;;9.30;5.80;;;;;;;7.67;56.46;94309.09;5024219;28;20063;-74
2023/04/15 04:03:17;;;;;;;12.23;5.93;;;;;;;7.64;56.38;94307.22;5008460;28;20037;-74
2023/04/15 04:05:45;;;;;;;9.63;5.93;;;;;;;7.60;56.49;94300.31;5024619;28;20039;-75
2023/04/15 04:08:12;;;;;;;9.50;6.40;;;;;;;7.45;56.77;94288.97;5023781;28;20495;-75
2023/04/15 04:10:38;;;;;;;11.45;6.05;;;;;;;7.54;56.87;94308.28;5025828;28;20029;-76
2023/04/15 04:13:04;;;;;;;9.75;6.30;;;;;;;7.56;57.03;94310.56;5023910;28;20108;-76
2023/04/15 04:15:29;;;;;;;12.52;6.18;;;;;;;7.58;57.30;94310.94;5025727;28;20109;-77
2023/04/15 04:17:55;;;;;;;9.93;5.82;;;;;;;7.58;57.61;94311.69;5025095;28;20542;-75
2023/04/15 04:20:20;;;;;;;9.18;6.85;;;;;;;7.60;57.71;94314.00;5024603;28;20458;-75
2023/04/15 04:22:46;;;;;;;13.60;6.70;;;;;;;7.58;57.67;94308.97;5025518;28;20032;-75
2023/04/15 04:25:11;;;;;;;13.90;7.25;;;;;;;7.58;57.80;94322.63;5025953;28;20063;-74
2023/04/15 04:27:37;;;;;;;11.10;6.95;;;;;;;7.59;58.04;94318.69;5025524;28;20041;-74
2023/04/15 04:30:03;;;;;;;13.70;7.82;;;;;;;7.60;58.01;94322.97;5024848;28;20572;-74
2023/04/15 04:32:29;;;;;;;10.55;5.80;;;;;;;7.60;57.97;94325.69;5023825;28;20506;-74
2023/04/15 04:34:55;;;;;;;13.70;6.13;;;;;;;7.67;57.80;94328.22;5023854;28;20066;-73
2023/04/15 04:37:22;;;;;;;10.32;6.18;;;;;;;7.71;57.62;94325.41;5023877;28;20429;-76
2023/04/15 04:39:47;;;;;;;9.23;6.40;;;;;;;7.75;57.67;94326.09;5023760;28;20060;-76
2023/04/15 04:42:13;;;;;;;12.02;5.75;;;;;;;7.79;57.53;94326.75;5025114;28;20060;-76
2023/04/15 04:44:38;;;;;;;15.57;6.78;;;;;;;7.83;57.41;94330.16;5024194;28;20113;-75
2023/04/15 04:47:03;;;;;;;10.27;6.47;;;;;;;7.85;57.53;94335.19;5024718;28;20030;-75
2023/04/15 04:49:29;;;;;;;11.38;5.97;;;;;;;7.89;57.52;94338.59;5023964;28;20025;-75
2023/04/15 04:51:54;;;;;;;6.82;5.65;;;;;;;7.91;57.14;94334.25;5023815;28;20029;-76
2023/04/15 04:54:20;;;;;;;8.63;5.72;;;;;;;7.92;57.33;94335.00;5007000;28;20032;-75
2023/04/15 04:56:45;;;;;;;8.20;5.07;;;;;;;7.89;57.47;94342.09;5024994;28;20539;-76
2023/04/15 04:59:11;;;;;;;9.15;5.72;;;;;;;7.94;57.41;94338.06;5024817;28;20537;-75
2023/04/15 05:01:36;;;;;;;6.82;4.72;;;;;;;7.92;57.30;94340.47;5025190;28;20021;-75
2023/04/15 05:04:03;;;;;;;10.57;6.07;;;;;;;8.00;57.48;94347.28;5024622;28;20424;-75
2023/04/15 05:06:29;;;;;;;8.75;5.57;;;;;;;8.05;57.15;94346.75;5025155;28;20025;-74
2023/04/15 05:08:55;;;;;;;8.75;5.72;;;;;;;8.12;56.92;94338.31;5022595;28;20476;-74
2023/04/15 05:11:21;;;;;;;10.02;5.57;;;;;;;8.13;56.56;94355.50;5023225;28;20068;-74
2023/04/15 05:13:46;;;;;;;8.30;5.22;;;;;;;8.19;56.31;94364.72;5024663;28;20021;-75
2023/04/15 05:16:11;;;;;;;9.48;4.90;;;;;;;8.27;56.21;94368.03;5023406;28;20502;-74
2023/04/15 05:18:37;;;;;;;7.97;4.68;;;;;;;8.32;55.95;94375.72;5023056;28;20029;-76
2023/04/15 05:21:02;;;;;;;7.45;4.70;;;;;;;8.37;55.93;94381.47;5025558;28;20679;-74
2023/04/15 05:23:28;;;;;;;6.88;3.78;;;;;;;8.42;55.53;94366.44;5023638;28;20052;-74
2023/04/15 05:25:54;;;;;;;8.98;4.75;;;;;;;8.49;55.36;94372.50;5024415;28;20464;-74
2023/04/15 05:28:19;;;;;;;11.05;4.78;;;;;;;8.57;55.04;94373.03;5024890;28;20109;-75
2023/04/15 05:30:45;;;;;;;8.77;4.78;;;;;;;8.64;55.17;94372.81;5024271;28;20389;-74
2023/04/15 05:33:10;;;;;;;9.85;5.25;;;;;;;8.68;54.81;94359.78;5024511;28;20432;-74
2023/04/15 05:35:36;;;;;;;9.65;4.90;;;;;;;8.75;55.13;94377.97;5024359;28;20052;-74
2023/04/15 05:38:01;;;;;;;9.00;5.35;;;;;;;8.73;55.27;94364.72;5023161;28;20532;-75
2023/04/15 05:40:27;;;;;;;11.82;5.65;;;;;;;8.77;55.66;94370.88;5024205;28;20171;-75
2023/04/15 05:42:52;;;;;;;10.32;6.10;;;;;;;8.89;55.36;94361.09;5024572;28;20080;-74
2023/04/15 05:45:18;;;;;;;10.15;5.80;;;;;;;8.98;55.09;94368.66;5024646;28;20567;-75
2023/04/15 05:47:43;;;;;;;11.73;5.78;;;;;;;9.03;54.87;94371.59;5024145;28;20034;-74
2023/04/15 05:50:09;;;;;;;8.88;5.80;;;;;;;9.10;54.69;94376.09;5023064;28;20581;-75
2023/04/15 05:52:34;;;;;;;12.48;5.40;;;;;;;9.18;54.63;94380.16;5024620;28;20044;-74
2023/04/15 05:55:00;;;;;;;8.40;5.88;;;;;;;9.27;54.30;94382.22;5039682;28;20021;-75
2023/04/15 05:57:25;;;;;;;9.65;5.70;;;;;;;9.30;54.36;94386.81;5022473;28;20032;-76
2023/04/15 05:59:51;;;;;;;9.57;5.55;;;;;;;9.42;54.15;94391.53;5023443;28;20041;-74
2023/04/15 06:02:17;;;;;;;8.45;5.30;;;;;;;9.49;53.48;94383.03;5022702;28;20109;-73
2023/04/15 06:04:42;;;;;;;9.35;5.35;;;;;;;9.56;53.46;94379.28;5023242;28;20025;-73
2023/04/15 06:07:08;;;;;;;11.80;5.32;;;;;;;9.65;53.36;94384.88;5022952;28;20026;-74
2023/04/15 06:09:33;;;;;;;9.30;5.03;;;;;;;9.70;52.70;94389.81;5022209;28;20450;-74
2023/04/15 06:12:00;;;;;;;8.65;5.40;;;;;;;9.74;52.60;94387.69;5022832;28;20033;-74
2023/04/15 06:14:25;;;;;;;8.85;4.47;;;;;;;9.84;52.36;94391.28;5006344;28;20021;-73
2023/04/15 06:16:51;;;;;;;11.00;4.60;;;;;;;9.91;52.32;94395.75;5026404;28;20554;-75
2023/04/15 06:19:17;;;;;;;8.57;4.43;;;;;;;9.96;52.22;94398.69;5024450;28;20022;-75
2023/04/15 06:21:43;;;;;;;9.23;5.05;;;;;;;10.03;52.18;94403.94;5026583;28;20075;-74
2023/04/15 06:24:08;;;;;;;9.55;5.18;;;;;;;10.15;52.11;94407.88;5027866;28;20561;-78
2023/04/15 06:26:33;;;;;;;8.52;5.45;;;;;;;10.18;52.19;94406.19;5027286;28;20036;-74
2023/04/15 06:28:59;;;;;;;7.78;4.85;;;;;;;10.27;53.96;94412.56;5027901;28;20021;-78
2023/04/15 06:31:25;;;;;;;12.52;5.32;;;;;;;10.37;53.10;94413.34;5027072;28;20026;-78
2023/04/15 06:33:50;;;;;;;9.48;4.53;;;;;;;10.39;52.79;94421.19;5027394;28;20484;-84
2023/04/15 06:36:15;;;;;;;7.93;4.65;;;;;;;10.47;52.95;94416.94;5030519;28;20065;-85
2023/04/15 06:38:41;;;;;;;8.18;5.00;;;;;;;10.60;53.42;94423.13;5025933;28;20095;-76
2023/04/15 06:41:06;;;;;;;7.55;4.38;;;;;;;10.79;54.32;94429.50;5025874;28;20068;-77
2023/04/15 06:43:32;;;;;;;11.38;5.00;;;;;;;10.93;52.44;94428.97;5027249;28;20049;-75
2023/04/15 06:45:57;;;;;;;8.38;4.53;;;;;;;11.07;51.43;94424.91;5027760;28;20408;-75
2023/04/15 06:48:23;;;;;;;9.05;5.28;;;;;;;11.01;50.98;94440.44;5027044;28;20091;-75
2023/04/15 06:50:48;;;;;;;10.80;5.30;;;;;;;11.19;50.40;94434.28;5025856;28;20167;-77
2023/04/15 06:53:14;;;;;;;12.25;5.57;;;;;;;11.20;50.03;94439.31;5009156;28;20036;-78
2023/04/15 06:55:40;;;;;;;11.88;5.30;;;;;;;11.33;49.44;94431.72;5026688;28;20030;-79
2023/04/15 06:58:05;;;;;;;17.00;6.70;;;;;;;11.49;49.29;94436.19;5026338;28;20092;-75
2023/04/15 07:00:32;;;;;;;13.90;5.47;;;;;;;11.63;48.83;94430.09;5026910;28;20028;-79
2023/04/15 07:02:58;;;;;;;8.60;5.55;;;;;;;11.75;48.81;94422.19;5026917;28;20052;-79
2023/04/15 07:05:24;;;;;;;6.97;4.88;;;;;;;11.88;48.82;94428.34;5025390;28;20488;-82
2023/04/15 07:07:50;;;;;;;7.88;4.50;;;;;;;11.96;48.43;94424.84;5025171;28;20029;-76
2023/04/15 07:10:15;;;;;;;9.80;5.03;;;;;;;12.13;47.95;94419.03;5031808;28;20025;-73
2023/04/15 07:12:41;;;;;;;13.45;5.15;;;;;;;12.23;47.86;94417.81;5025100;28;20276;-77
2023/04/15 07:15:07;;;;;;;11.00;5.25;;;;;;;12.37;47.73;94419.94;5025019;28;20101;-76
2023/04/15 07:17:33;;;;;;;11.38;4.85;;;;;;;12.56;47.23;94419.91;5025133;28;20037;-75
2023/04/15 07:19:58;;;;;;;7.40;3.15;;;;;;;12.56;46.23;94420.69;5026567;28;20021;-74
2023/04/15 07:22:24;;;;;;;7.38;3.78;;;;;;;12.80;45.82;94420.78;5025087;28;20021;-77
2023/04/15 07:24:49;;;;;;;7.22;3.00;;;;;;;12.90;44.96;94427.81;5008624;28;20048;-78
2023/04/15 07:27:15;;;;;;;5.53;2.78;;;;;;;13.09;44.73;94419.47;5026537;28;20025;-78
2023/04/15 07:29:41;;;;;;;6.35;3.28;;;;;;;13.33;44.09;94406.53;5026115;28;20022;-78
2023/04/15 07:32:06;;;;;;;5.20;3.20;;;;;;;13.41;43.73;94415.97;5023794;28;20045;-77
2023/04/15 07:34:31;;;;;;;6.22;2.88;;;;;;;13.51;43.77;94423.00;5025024;28;20021;-79
2023/04/15 07:36:57;;;;;;;9.10;3.70;;;;;;;13.76;42.88;94423.75;5025581;28;20337;-77
2023/04/15 07:39:22;;;;;;;5.88;3.33;;;;;;;13.94;41.91;94423.66;5026342;28;20458;-72
2023/04/15 07:41:48;;;;;;;8.48;3.30;;;;;;;14.12;41.55;94422.78;5025836;28;20026;-75
2023/04/15 07:44:13;;;;;;;7.57;3.40;;;;;;;14.17;41.07;94422.13;5025835;28;20776;-78
2023/04/15 07:46:39;;;;;;;6.47;2.72;;;;;;;14.23;41.04;94430.53;5024955;28;20148;-79
2023/04/15 07:49:04;;;;;;;8.15;3.00;;;;;;;14.46;40.77;94424.19;5024480;28;20365;-73
2023/04/15 07:51:31;;;;;;;9.38;3.30;;;;;;;14.48;41.28;94435.56;5025822;28;20029;-73
2023/04/15 07:53:56;;;;;;;3.25;1.10;;;;;;;14.36;36.26;94431.03;5007733;28;20030;-77
2023/04/15 07:56:22;;;;;;;2.40;0.98;;;;;;;14.35;35.58;94432.25;5025984;28;20029;-79
2023/04/15 07:58:47;;;;;;;1.38;0.75;;;;;;;14.15;35.69;94435.63;5023938;28;20432;-76
2023/04/15 08:01:15;;;;;;;2.88;0.90;;;;;;;14.43;35.48;94441.72;5026199;28;20389;-78
2023/04/15 08:03:41;;;;;;;3.55;0.82;;;;;;;14.51;34.52;94433.84;5025738;28;20155;-77
2023/04/15 08:06:07;;;;;;;1.50;0.77;;;;;;;14.74;34.33;94451.63;5027205;28;20056;-76
2023/04/15 08:08:32;;;;;;;2.53;0.80;;;;;;;14.92;34.01;94451.44;5024233;28;20596;-74
2023/04/15 08:10:58;;;;;;;1.58;0.55;;;;;;;14.78;32.69;94446.66;5023815;28;20508;-74
2023/04/15 08:13:23;;;;;;;2.60;0.95;;;;;;;15.04;33.45;94447.63;5024149;28;20029;-75
2023/04/15 08:16:24;;;;;;;1.52;1.10;;;;;;;15.10;32.67;94448.47;5024515;28;20029;-74
2023/04/15 08:18:51;;;;;;;1.92;0.70;;;;;;;15.10;32.29;94447.72;5023567;28;20025;-73
2023/04/15 08:21:17;;;;;;;2.05;0.85;;;;;;;15.34;32.77;94437.28;5024117;28;20078;-75
2023/04/15 08:23:44;;;;;;;2.92;1.10;;;;;;;15.38;33.14;94459.25;5023217;28;20549;-78
2023/04/15 08:26:10;;;;;;;2.10;0.63;;;;;;;15.56;32.14;94447.19;5023841;28;20511;-74
2023/04/15 08:28:38;;;;;;;1.63;1.10;;;;;;;15.60;32.19;94454.06;5023643;28;20029;-75
2023/04/15 08:31:04;;;;;;;2.83;0.80;;;;;;;15.43;31.50;94446.72;5023573;28;20117;-76
2023/04/15 08:33:29;;;;;;;3.08;1.20;;;;;;;15.67;31.89;94441.84;5024874;28;20022;-76
2023/04/15 08:35:54;;;;;;;2.92;1.42;;;;;;;15.84;32.10;94444.84;5024680;28;20053;-77
2023/04/15 08:38:20;;;;;;;2.65;0.82;;;;;;;15.55;32.53;94446.41;5024415;28;20446;-74
2023/04/15 08:40:45;;;;;;;0.82;0.60;;;;;;;15.56;31.11;94428.53;5023040;28;20079;-76
2023/04/15 08:43:26;;;;;;;4.03;1.35;;;;;;;15.96;31.75;94427.09;5024330;28;20029;-73
2023/04/15 08:45:52;;;;;;;1.63;0.85;;;;;;;16.25;31.24;94434.53;5023204;28;20383;-78
2023/04/15 08:48:18;;;;;;;3.05;0.88;;;;;;;16.06;31.33;94422.19;5023600;28;20029;-76
2023/04/15 08:50:45;;;;;;;3.13;1.00;;;;;;;16.13;30.52;94422.53;5023012;28;20033;-76
2023/04/15 08:53:10;;;;;;;2.13;0.95;;;;;;;16.53;30.16;94420.97;5024565;28;20037;-78
2023/04/15 08:55:42;;;;;;;2.20;0.50;;;;;;;16.54;29.81;94425.28;5023844;28;20077;-76
2023/04/15 08:58:08;;;;;;;1.90;1.05;;;;;;;16.33;30.20;94415.44;5024641;28;20029;-74
2023/04/15 09:00:33;;;;;;;2.22;0.85;;;;;;;16.66;29.20;94421.38;5023741;28;20376;-75
2023/04/15 09:02:59;;;;;;;1.52;0.70;;;;;;;16.40;28.70;94439.97;5022673;28;20022;-73
2023/04/15 09:05:24;;;;;;;2.33;0.70;;;;;;;16.52;28.52;94405.59;5024784;28;20025;-75
2023/04/15 09:07:50;;;;;;;1.67;0.80;;;;;;;16.82;28.63;94414.50;5024104;28;20025;-76
2023/04/15 09:10:16;;;;;;;1.88;0.85;;;;;;;17.12;28.99;94409.44;5039898;28;20059;-80
2023/04/15 09:12:41;;;;;;;1.83;1.02;;;;;;;16.86;28.74;94405.94;5021912;28;20022;-73
2023/04/15 09:15:07;;;;;;;2.42;0.85;;;;;;;17.29;28.39;94409.59;5022266;28;20029;-73
2023/04/15 09:17:33;;;;;;;3.10;0.70;;;;;;;17.87;27.75;94395.59;5005580;28;20036;-79
2023/04/15 09:20:10;;;;;;;3.13;0.60;;;;;;;17.86;26.84;94386.47;5006130;28;20037;-77
2023/04/15 09:22:36;;;;;;;2.75;1.45;;;;;;;17.74;26.67;94393.25;5022829;28;20488;-80
2023/04/15 09:25:02;;;;;;;1.52;0.65;;;;;;;18.04;26.80;94385.31;5022647;28;20125;-82
2023/04/15 09:27:28;;;;;;;4.93;0.98;;;;;;;18.21;26.75;94383.34;5024776;28;20466;-79
2023/04/15 09:29:53;;;;;;;2.33;0.85;;;;;;;18.10;27.13;94382.53;5022725;28;20083;-73
2023/04/15 09:32:20;;;;;;;2.47;0.90;;;;;;;18.40;26.09;94380.88;5023727;28;20411;-73
2023/04/15 09:34:46;;;;;;;2.67;0.80;;;;;;;18.53;25.77;94399.91;5023166;28;20113;-74
2023/04/15 09:37:14;;;;;;;2.85;0.93;;;;;;;18.77;24.88;94399.47;5022015;28;20110;-74
2023/04/15 09:39:50;;;;;;;1.40;0.68;;;;;;;18.74;24.11;94412.38;5022758;28;20076;-74
2023/04/15 09:42:25;;;;;;;2.08;0.55;;;;;;;18.42;23.99;94385.97;5022374;28;20048;-74
2023/04/15 09:44:54;;;;;;;1.50;0.60;;;;;;;18.23;24.87;94380.81;5024809;28;20030;-74
2023/04/15 09:47:27;;;;;;;2.60;0.80;;;;;;;18.43;24.97;94409.75;5022619;28;20102;-72
2023/04/15 09:49:59;;;;;;;2.50;0.70;;;;;;;18.50;25.20;94398.13;5022586;28;20055;-76
2023/04/15 09:52:26;;;;;;;3.67;0.90;;;;;;;18.80;24.43;94410.34;5026637;28;20086;-76
2023/04/15 09:54:56;;;;;;;2.65;0.70;;;;;;;18.84;23.56;94399.75;5025882;28;20031;-78
2023/04/15 09:57:25;;;;;;;1.77;0.60;;;;;;;18.86;23.75;94393.66;5043422;28;20571;-75
2023/04/15 09:59:50;;;;;;;2.20;0.80;;;;;;;18.31;24.74;94390.22;5027879;28;20149;-77
2023/04/15 10:02:18;;;;;;;2.15;0.63;;;;;;;18.11;24.95;94406.31;5028075;28;20543;-77
2023/04/15 10:04:44;;;;;;;2.05;0.60;;;;;;;17.58;24.78;94399.44;5026934;28;20117;-78
2023/04/15 10:07:11;;;;;;;2.75;0.50;;;;;;;17.77;24.91;94401.34;5026209;28;20017;-78
2023/04/15 10:09:37;;;;;;;3.95;0.88;;;;;;;17.80;24.73;94415.53;5026801;28;20170;-78
2023/04/15 10:12:04;;;;;;;2.03;0.70;;;;;;;18.02;24.41;94401.75;5026374;28;20029;-82
2023/04/15 10:14:33;;;;;;;3.50;1.13;;;;;;;18.21;23.09;94402.06;5026753;28;20488;-78
2023/04/15 10:17:02;;;;;;;1.85;0.60;;;;;;;17.97;24.05;94402.47;5026224;28;20053;-77
2023/04/15 10:19:30;;;;;;;1.65;0.60;;;;;;;17.65;25.28;94383.03;5027776;28;20109;-75
2023/04/15 10:21:56;;;;;;;1.83;1.13;;;;;;;17.75;24.72;94397.53;5027765;28;20025;-74
2023/04/15 10:24:22;;;;;;;2.15;0.80;;;;;;;17.36;25.00;94383.38;5025780;28;20060;-76
2023/04/15 10:26:49;;;;;;;3.10;0.90;;;;;;;17.59;24.48;94382.25;5028224;28;20029;-79
2023/04/15 10:29:15;;;;;;;3.05;0.80;;;;;;;17.15;24.57;94366.06;5025723;28;20037;-77
2023/04/15 10:31:41;;;;;;;1.83;0.60;;;;;;;17.18;23.38;94374.16;5026401;28;20025;-79
2023/04/15 10:34:08;;;;;;;2.10;0.60;;;;;;;17.37;23.68;94371.75;5026078;28;20021;-77
2023/04/15 10:36:33;;;;;;;2.25;0.73;;;;;;;17.28;23.67;94377.50;5026106;28;20029;-77
2023/04/15 10:38:58;;;;;;;1.38;0.60;;;;;;;17.83;23.71;94370.03;5026098;28;20550;-78
2023/04/15 10:41:27;;;;;;;0.98;0.52;;;;;;;18.08;23.88;94366.38;5026959;28;20104;-78
2023/04/15 10:43:58;;;;;;;2.15;0.77;;;;;;;18.17;24.44;94357.78;5026237;28;20041;-76
2023/04/15 10:46:34;;;;;;;3.78;0.90;;;;;;;18.78;24.27;94368.34;5029607;28;20033;-76
2023/04/15 10:49:06;;;;;;;1.20;0.60;;;;;;;18.51;24.09;94375.34;5026019;28;20091;-76
2023/04/15 10:51:32;;;;;;;2.38;0.70;;;;;;;18.62;24.62;94382.19;5026850;28;20025;-89
2023/04/15 10:54:01;;;;;;;3.65;1.60;;;;;;;18.95;24.77;94367.59;5025857;28;20025;-77
2023/04/15 10:56:32;;;;;;;4.65;2.58;;;;;;;19.65;24.23;94363.78;5025109;28;20033;-77
2023/04/15 10:58:59;;;;;;;2.08;0.70;;;;;;;19.76;23.10;94355.38;5025211;28;20045;-75
2023/04/15 11:01:55;;;;;;;2.25;0.73;;;;;;;19.39;23.66;94363.31;5026863;28;20484;-76
2023/04/15 11:04:52;;;;;;;2.30;0.80;;;;;;;20.25;23.01;94366.88;5008593;28;20025;-80
2023/04/15 11:07:40;;;;;;;3.40;1.25;;;;;;;20.47;23.05;94354.88;5023972;28;20026;-78
2023/04/15 11:10:17;;;;;;;2.38;1.00;;;;;;;20.71;23.62;94361.88;5025071;28;20028;-77
2023/04/15 11:12:47;;;;;;;2.20;0.93;;;;;;;21.73;22.37;94352.13;5026244;28;20523;-81
2023/04/15 11:15:29;;;;;;;3.72;1.20;;;;;;;22.19;20.78;94353.16;5009111;28;20580;-79
2023/04/15 11:17:56;;;;;;;2.28;0.75;;;;;;;22.74;20.16;94345.31;5026626;28;20030;-80
2023/04/15 11:20:21;;;;;;;2.35;0.98;;;;;;;22.73;20.64;94349.41;5025820;28;20461;-80
2023/04/15 11:22:51;;;;;;;2.53;0.82;;;;;;;22.34;20.43;94352.75;5025502;28;20112;-83
2023/04/15 11:25:30;;;;;;;2.53;1.20;;;;;;;22.56;20.58;94340.50;5026372;28;20483;-83
2023/04/15 11:27:56;;;;;;;1.38;0.80;;;;;;;22.69;19.08;94360.91;5025991;28;20116;-77
2023/04/15 11:30:24;;;;;;;1.23;0.80;;;;;;;21.55;20.21;94356.38;5024555;28;20104;-76